Grand Forks International Airport Grand Forks US
ICAO: KGFK
IATA: GFK
Category: Medium
Scheduled Services: Yes

Elevation: 845 ft
TransAlt. 18000 ft.

Airport Communications:
APP/DEP:118.1
ATIS:119.4
CTAF:118.4
GND:124.575
RDO:122.2
Grand Forks Tower:118.4
UNICOM:122.95

KGFK Zoom In..

If you have problems with the map follow the link
https://www.worldairports.se/pages/airport.php?
ICAO=KGFK

Runways:

(A) RW 09L length 4206 ft width 100 ft
---- / hdg 84

(B) RW 09R length 3300 ft width 60 ft
---- / hdg 84

(C) RW 17L length 3901 ft width 75 ft
---- / hdg 174

(D) RW 17R length 7351 ft width 150 ft
---- / hdg 174

(E) RW 27L length 3300 ft width 60 ft
---- / hdg 264

(F) RW 27R length 4206 ft width 100 ft
---- / hdg 264

(G) RW 35L length 7351 ft width 150 ft
ILS 109.10 / hdg 354

(H) RW 35R length 3901 ft width 75 ft
---- / hdg 354

Location; KGFK
Day. 19 / Time. 21.53 Zulu
* Altimeter: 29.98
* Temperature: 16° c. 60.8°f.
* Wind from: 050° Speed 13 kn.
Dewpoint: -04° c.
Visibility: 10 Statute Miles.
Clouds: Few 1000 ft.
Clouds: Broken 2000 ft.

KGFK 192153Z 05013KT 10SM FEW100 BKN200 16/M04 A2998 RMK AO2 SLP156 T01561039


Wind From 050°
Speed 13 kn.

 
 
jpsmedia.com for Web Design worldairports.se 2019   terms of use